createdAt,value
2023-04-27T00:00:05.079Z,94.85
2023-04-27T00:01:15.178Z,94.82
2023-04-27T00:02:16.933Z,95.24
2023-04-27T00:03:18.900Z,95.18
2023-04-27T00:04:20.996Z,95.41
2023-04-27T00:05:23.043Z,95.71
2023-04-27T00:06:24.690Z,96.04
2023-04-27T00:07:26.271Z,96.15
2023-04-27T00:08:28.064Z,96.05
2023-04-27T00:09:29.692Z,96.04
2023-04-27T00:10:31.488Z,96.33
2023-04-27T00:11:33.247Z,96.22
2023-04-27T00:12:35.165Z,96.22
2023-04-27T00:13:36.758Z,96.48
2023-04-27T00:14:38.360Z,96.56
2023-04-27T00:15:39.971Z,96.58
2023-04-27T00:16:41.654Z,96.48
2023-04-27T00:17:43.322Z,96.63
2023-04-27T00:18:44.980Z,96.66
2023-04-27T00:19:46.918Z,95.95
2023-04-27T00:20:48.496Z,95.74
2023-04-27T00:21:50.085Z,95.79
2023-04-27T00:22:51.793Z,95.68
2023-04-27T00:23:54.418Z,95.97
2023-04-27T00:24:56.022Z,96.42
2023-04-27T00:25:57.596Z,96.66
2023-04-27T00:26:59.181Z,96.68
2023-04-27T00:28:00.778Z,96.52
2023-04-27T00:29:02.364Z,96.78
2023-04-27T00:30:04.947Z,96.46
2023-04-27T00:31:07.750Z,96.22
2023-04-27T00:32:12.376Z,96.49
2023-04-27T00:33:14.135Z,96.26
2023-04-27T00:34:15.754Z,96.69
2023-04-27T00:35:17.508Z,96.87
2023-04-27T00:36:19.083Z,96.50
2023-04-27T00:37:22.920Z,96.35
2023-04-27T00:38:24.579Z,96.53
2023-04-27T00:39:26.196Z,96.68
2023-04-27T00:40:27.794Z,96.50
2023-04-27T00:41:29.673Z,96.23
2023-04-27T00:42:31.289Z,96.31
2023-04-27T00:43:40.970Z,96.05
2023-04-27T00:44:43.135Z,96.33
2023-04-27T00:45:44.711Z,96.43
2023-04-27T00:46:47.441Z,96.62
2023-04-27T00:47:49.733Z,96.62
2023-04-27T00:48:52.785Z,97.13
2023-04-27T00:49:54.460Z,97.14
2023-04-27T00:50:56.049Z,97.39
2023-04-27T00:51:57.873Z,97.50
2023-04-27T00:52:59.582Z,97.16
2023-04-27T00:54:01.630Z,97.30
2023-04-27T00:55:05.979Z,97.23
2023-04-27T00:56:07.866Z,97.13
2023-04-27T00:57:09.599Z,97.19
2023-04-27T00:58:11.167Z,97.44
2023-04-27T00:59:13.085Z,97.50
2023-04-27T01:00:15.061Z,97.38
2023-04-27T01:01:16.815Z,97.23
2023-04-27T01:02:18.729Z,97.19
2023-04-27T01:03:21.099Z,97.35
2023-04-27T01:04:23.020Z,97.44
2023-04-27T01:05:26.367Z,97.52
2023-04-27T01:06:28.214Z,97.36
2023-04-27T01:07:29.927Z,97.07
2023-04-27T01:08:33.053Z,97.04
2023-04-27T01:09:37.200Z,97.34
2023-04-27T01:10:38.862Z,97.84
2023-04-27T01:11:40.687Z,97.97
2023-04-27T01:12:42.379Z,97.83
2023-04-27T01:13:44.662Z,97.92
2023-04-27T01:14:46.328Z,97.85
2023-04-27T01:15:48.035Z,97.36
2023-04-27T01:16:49.689Z,97.50
2023-04-27T01:17:58.490Z,97.34
2023-04-27T01:19:00.216Z,97.40
2023-04-27T01:20:02.453Z,97.38
2023-04-27T01:21:04.249Z,97.35
2023-04-27T01:22:06.777Z,96.94
2023-04-27T01:23:08.350Z,96.91
2023-04-27T01:24:10.918Z,98.11
2023-04-27T01:25:12.491Z,99.35
2023-04-27T01:26:14.109Z,99.53
2023-04-27T01:27:16.443Z,100.00
2023-04-27T01:28:18.456Z,100.00
2023-04-27T01:29:20.473Z,100.00
2023-04-27T01:30:22.119Z,100.00
2023-04-27T01:31:23.754Z,100.00
2023-04-27T01:32:25.540Z,99.83
2023-04-27T01:33:27.132Z,99.66
2023-04-27T01:34:28.712Z,99.59
2023-04-27T01:35:30.295Z,99.32
2023-04-27T01:36:34.656Z,99.33
2023-04-27T01:37:36.442Z,99.49
2023-04-27T01:38:38.045Z,99.48
2023-04-27T01:39:39.712Z,99.75
2023-04-27T01:40:43.164Z,99.85
2023-04-27T01:41:44.791Z,99.96
2023-04-27T01:42:46.516Z,100.00
2023-04-27T01:43:48.130Z,100.00
2023-04-27T01:44:49.791Z,99.72
2023-04-27T01:45:51.357Z,99.52
2023-04-27T01:46:52.979Z,99.81
2023-04-27T01:47:54.622Z,100.00
2023-04-27T01:48:56.286Z,100.00
2023-04-27T01:49:58.092Z,100.00
2023-04-27T01:50:59.689Z,99.50
2023-04-27T01:52:02.020Z,99.41
2023-04-27T01:53:03.652Z,99.21
2023-04-27T01:54:05.312Z,99.27
2023-04-27T01:55:07.493Z,99.48
2023-04-27T01:56:09.166Z,99.40
2023-04-27T01:57:10.752Z,99.25
2023-04-27T01:58:12.352Z,99.05
2023-04-27T01:59:15.694Z,99.07
2023-04-27T02:00:17.811Z,99.26
2023-04-27T02:01:27.398Z,98.98
2023-04-27T02:02:29.117Z,98.80
2023-04-27T02:03:30.987Z,98.82
2023-04-27T02:04:32.901Z,98.67
2023-04-27T02:05:34.623Z,98.54
2023-04-27T02:06:36.435Z,98.39
2023-04-27T02:07:38.073Z,98.46
2023-04-27T02:08:39.747Z,98.78
2023-04-27T02:09:43.344Z,99.18
2023-04-27T02:10:47.231Z,98.60
2023-04-27T02:11:48.853Z,98.33
2023-04-27T02:12:50.507Z,98.44
2023-04-27T02:13:52.090Z,98.71
2023-04-27T02:14:54.003Z,98.73
2023-04-27T02:15:55.627Z,98.99
2023-04-27T02:16:57.232Z,99.02
2023-04-27T02:17:58.903Z,99.23
2023-04-27T02:19:00.767Z,99.33
2023-04-27T02:20:02.400Z,99.40
2023-04-27T02:21:09.208Z,99.33
2023-04-27T02:22:11.535Z,99.91
2023-04-27T02:23:13.255Z,99.87
2023-04-27T02:24:17.166Z,99.78
2023-04-27T02:25:20.324Z,99.32
2023-04-27T02:26:22.998Z,99.66
2023-04-27T02:27:24.665Z,100.00
2023-04-27T02:28:26.738Z,99.94
2023-04-27T02:29:31.584Z,99.91
2023-04-27T02:30:33.623Z,99.58
2023-04-27T02:31:35.374Z,99.62
2023-04-27T02:32:37.485Z,99.56
2023-04-27T02:33:39.774Z,99.75
2023-04-27T02:34:42.178Z,99.83
2023-04-27T02:35:43.789Z,99.65
2023-04-27T02:36:45.393Z,100.00
2023-04-27T02:37:47.056Z,100.00
2023-04-27T02:38:50.120Z,100.00
2023-04-27T02:39:51.720Z,100.00
2023-04-27T02:40:54.394Z,99.90
2023-04-27T02:41:56.107Z,99.84
2023-04-27T02:42:57.745Z,100.00
2023-04-27T02:43:59.312Z,100.00
2023-04-27T02:45:01.115Z,100.00
2023-04-27T02:46:03.550Z,100.00
2023-04-27T02:47:05.988Z,100.00
2023-04-27T02:48:07.668Z,100.00
2023-04-27T02:49:09.317Z,100.00
2023-04-27T02:50:10.987Z,100.00
2023-04-27T02:51:12.814Z,100.00
2023-04-27T02:52:14.411Z,100.00
2023-04-27T02:53:15.995Z,100.00
2023-04-27T02:54:17.532Z,100.00
2023-04-27T02:55:19.356Z,100.00
2023-04-27T02:56:21.369Z,100.00
2023-04-27T02:57:25.302Z,100.00
2023-04-27T02:58:27.094Z,100.00
2023-04-27T02:59:28.682Z,100.00
2023-04-27T03:00:30.616Z,100.00
2023-04-27T03:01:32.462Z,100.00
2023-04-27T03:02:34.254Z,100.00
2023-04-27T03:03:36.142Z,100.00
2023-04-27T03:04:37.978Z,100.00
2023-04-27T03:05:39.572Z,100.00
2023-04-27T03:06:41.310Z,100.00
2023-04-27T03:07:43.071Z,100.00
2023-04-27T03:08:44.662Z,100.00
2023-04-27T03:09:46.242Z,100.00
2023-04-27T03:10:47.830Z,100.00
2023-04-27T03:11:49.444Z,100.00
2023-04-27T03:12:51.091Z,100.00
2023-04-27T03:13:52.939Z,100.00
2023-04-27T03:14:54.536Z,100.00
2023-04-27T03:15:56.186Z,100.00
2023-04-27T03:16:57.811Z,100.00
2023-04-27T03:17:59.924Z,100.00
2023-04-27T03:19:01.599Z,100.00
2023-04-27T03:20:06.037Z,100.00
2023-04-27T03:21:09.031Z,100.00
2023-04-27T03:22:10.657Z,100.00
2023-04-27T03:23:12.246Z,100.00
2023-04-27T03:24:13.869Z,100.00
2023-04-27T03:25:15.463Z,100.00
2023-04-27T03:26:17.112Z,100.00
2023-04-27T03:27:18.762Z,100.00
2023-04-27T03:28:20.371Z,100.00
2023-04-27T03:29:22.017Z,100.00
2023-04-27T03:30:23.678Z,100.00
2023-04-27T03:31:25.371Z,100.00
2023-04-27T03:32:27.024Z,100.00
2023-04-27T03:33:29.036Z,100.00
2023-04-27T03:34:30.936Z,100.00
2023-04-27T03:35:32.527Z,100.00
2023-04-27T03:36:34.129Z,100.00
2023-04-27T03:37:36.381Z,100.00
2023-04-27T03:38:38.091Z,100.00
2023-04-27T03:39:40.005Z,100.00
2023-04-27T03:40:43.105Z,100.00
2023-04-27T03:41:44.721Z,100.00
2023-04-27T03:42:46.910Z,100.00
2023-04-27T03:43:48.993Z,100.00
2023-04-27T03:44:52.038Z,100.00
2023-04-27T03:45:53.729Z,100.00
2023-04-27T03:46:55.293Z,100.00
2023-04-27T03:47:57.040Z,100.00
2023-04-27T03:48:58.762Z,100.00
2023-04-27T03:50:00.434Z,100.00
2023-04-27T03:51:02.428Z,100.00
2023-04-27T03:52:04.330Z,100.00
2023-04-27T03:53:05.976Z,100.00
2023-04-27T03:54:07.699Z,100.00
2023-04-27T03:55:09.611Z,100.00
2023-04-27T03:56:11.204Z,100.00
2023-04-27T03:57:12.877Z,100.00
2023-04-27T03:58:14.755Z,100.00
2023-04-27T03:59:35.267Z,100.00
2023-04-27T04:00:39.571Z,100.00
2023-04-27T04:01:41.313Z,100.00
2023-04-27T04:02:43.033Z,100.00
2023-04-27T04:03:45.559Z,100.00
2023-04-27T04:04:47.449Z,100.00
2023-04-27T04:05:49.427Z,100.00
2023-04-27T04:06:51.233Z,100.00
2023-04-27T04:07:52.776Z,100.00
2023-04-27T04:08:54.640Z,100.00
2023-04-27T04:09:56.619Z,100.00
2023-04-27T04:10:58.264Z,100.00
2023-04-27T04:12:00.157Z,100.00
2023-04-27T04:13:01.733Z,100.00
2023-04-27T04:14:03.401Z,100.00
2023-04-27T04:15:05.510Z,100.00
2023-04-27T04:16:09.454Z,100.00
2023-04-27T04:17:11.160Z,100.00
2023-04-27T04:18:15.190Z,100.00
2023-04-27T04:19:17.164Z,100.00
2023-04-27T04:20:19.043Z,100.00
2023-04-27T04:21:20.673Z,100.00
2023-04-27T04:22:22.989Z,100.00
2023-04-27T04:23:24.790Z,100.00
2023-04-27T04:24:29.902Z,100.00
2023-04-27T04:25:36.873Z,100.00
2023-04-27T04:26:38.572Z,100.00
2023-04-27T04:27:43.133Z,100.00
2023-04-27T04:28:47.479Z,100.00
2023-04-27T04:30:10.852Z,100.00
2023-04-27T04:31:18.274Z,100.00
2023-04-27T04:32:20.017Z,100.00
2023-04-27T04:33:27.880Z,100.00
2023-04-27T04:34:30.781Z,100.00
2023-04-27T04:35:32.823Z,100.00
2023-04-27T04:36:34.542Z,100.00
2023-04-27T04:37:36.163Z,100.00
2023-04-27T04:38:38.090Z,100.00
2023-04-27T04:39:39.993Z,100.00
2023-04-27T04:40:44.521Z,100.00
2023-04-27T04:41:47.616Z,100.00
2023-04-27T04:42:49.262Z,100.00
2023-04-27T04:43:50.992Z,100.00
2023-04-27T04:44:52.883Z,100.00
2023-04-27T04:45:54.521Z,100.00
2023-04-27T04:46:56.201Z,100.00
2023-04-27T04:48:01.035Z,100.00
2023-04-27T04:49:03.070Z,100.00
2023-04-27T04:50:05.037Z,100.00
2023-04-27T04:51:06.763Z,100.00
2023-04-27T04:52:09.209Z,100.00
2023-04-27T04:53:12.938Z,100.00
2023-04-27T04:54:14.658Z,100.00
2023-04-27T04:55:16.300Z,100.00
2023-04-27T04:56:17.895Z,100.00
2023-04-27T04:57:19.550Z,100.00
2023-04-27T04:58:21.348Z,100.00
2023-04-27T04:59:22.993Z,100.00
2023-04-27T05:00:24.636Z,100.00
2023-04-27T05:01:26.259Z,100.00
2023-04-27T05:02:27.973Z,100.00
2023-04-27T05:03:29.794Z,100.00
2023-04-27T05:04:31.550Z,100.00
2023-04-27T05:05:33.146Z,100.00
2023-04-27T05:06:34.701Z,100.00
2023-04-27T05:07:36.384Z,100.00
2023-04-27T05:08:37.987Z,100.00
2023-04-27T05:09:39.663Z,100.00
2023-04-27T05:10:41.236Z,100.00
2023-04-27T05:11:42.875Z,100.00
2023-04-27T05:12:44.478Z,100.00
2023-04-27T05:13:46.080Z,100.00
2023-04-27T05:14:47.676Z,100.00
2023-04-27T05:15:49.253Z,100.00
2023-04-27T05:16:50.853Z,100.00
2023-04-27T05:17:52.439Z,100.00
2023-04-27T05:18:53.973Z,100.00
2023-04-27T05:19:55.609Z,100.00
2023-04-27T05:20:57.264Z,100.00
2023-04-27T05:22:01.619Z,100.00
2023-04-27T05:23:03.413Z,100.00
2023-04-27T05:24:05.184Z,100.00
2023-04-27T05:25:07.118Z,100.00
2023-04-27T05:26:16.012Z,100.00
2023-04-27T05:27:17.589Z,100.00
2023-04-27T05:28:19.165Z,100.00
2023-04-27T05:29:21.811Z,100.00
2023-04-27T05:30:23.420Z,100.00
2023-04-27T05:31:25.083Z,100.00
2023-04-27T05:32:26.714Z,100.00
2023-04-27T05:33:28.349Z,100.00
2023-04-27T05:34:29.941Z,100.00
2023-04-27T05:35:32.391Z,100.00
2023-04-27T05:36:33.990Z,100.00
2023-04-27T05:37:35.630Z,100.00
2023-04-27T05:38:37.247Z,100.00
2023-04-27T05:39:39.083Z,100.00
2023-04-27T05:40:40.636Z,100.00
2023-04-27T05:41:42.264Z,100.00
2023-04-27T05:42:46.340Z,100.00
2023-04-27T05:43:47.880Z,100.00
2023-04-27T05:44:49.484Z,100.00
2023-04-27T05:45:51.257Z,100.00
2023-04-27T05:46:52.834Z,100.00
2023-04-27T05:47:54.483Z,100.00
2023-04-27T05:48:56.184Z,100.00
2023-04-27T05:49:57.799Z,100.00
2023-04-27T05:51:03.427Z,100.00
2023-04-27T05:52:04.996Z,100.00
2023-04-27T05:53:06.616Z,100.00
2023-04-27T05:54:08.538Z,100.00
2023-04-27T05:55:10.131Z,100.00
2023-04-27T05:56:11.740Z,100.00
2023-04-27T05:57:13.330Z,100.00
2023-04-27T05:58:15.142Z,100.00
2023-04-27T05:59:17.014Z,100.00
2023-04-27T06:00:18.753Z,100.00
2023-04-27T06:01:20.333Z,100.00
2023-04-27T06:02:22.764Z,100.00
2023-04-27T06:03:24.989Z,100.00
2023-04-27T06:04:27.083Z,100.00
2023-04-27T06:05:28.988Z,100.00
2023-04-27T06:06:34.311Z,100.00
2023-04-27T06:07:35.872Z,100.00
2023-04-27T06:08:37.666Z,100.00
2023-04-27T06:09:39.488Z,100.00
2023-04-27T06:10:41.080Z,100.00
2023-04-27T06:11:42.689Z,100.00
2023-04-27T06:12:46.305Z,100.00
2023-04-27T06:13:47.981Z,99.70
2023-04-27T06:14:49.536Z,99.73
2023-04-27T06:15:51.166Z,98.56
2023-04-27T06:16:55.414Z,97.45
2023-04-27T06:17:57.038Z,95.76
2023-04-27T06:18:58.692Z,93.13
2023-04-27T06:20:00.244Z,91.46
2023-04-27T06:21:02.333Z,90.37
2023-04-27T06:22:03.986Z,89.48
2023-04-27T06:23:05.650Z,90.27
2023-04-27T06:24:07.437Z,89.12
2023-04-27T06:25:09.208Z,88.56
2023-04-27T06:26:10.750Z,88.60
2023-04-27T06:27:12.331Z,89.02
2023-04-27T06:28:13.910Z,89.45
2023-04-27T06:29:15.812Z,89.08
2023-04-27T06:30:17.502Z,88.31
2023-04-27T06:31:19.103Z,88.16
2023-04-27T06:32:20.748Z,87.49
2023-04-27T06:33:22.462Z,86.82
2023-04-27T06:34:24.030Z,86.98
2023-04-27T06:35:25.718Z,86.42
2023-04-27T06:36:27.281Z,86.21
2023-04-27T06:37:28.835Z,85.76
2023-04-27T06:38:30.437Z,85.59
2023-04-27T06:39:32.024Z,84.89
2023-04-27T06:40:33.600Z,84.67
2023-04-27T06:41:35.453Z,84.70
2023-04-27T06:42:37.576Z,84.36
2023-04-27T06:43:39.229Z,83.58
2023-04-27T06:44:41.320Z,83.61
2023-04-27T06:45:43.030Z,83.74
2023-04-27T06:46:44.646Z,83.12
2023-04-27T06:47:46.310Z,80.98
2023-04-27T06:48:47.906Z,79.33
2023-04-27T06:49:49.905Z,79.37
2023-04-27T06:50:51.654Z,78.69
2023-04-27T06:51:53.285Z,78.95
2023-04-27T06:52:54.828Z,79.20
2023-04-27T06:53:56.390Z,77.58
2023-04-27T06:54:57.954Z,75.84
2023-04-27T06:56:00.024Z,75.72
2023-04-27T06:57:01.607Z,75.51
2023-04-27T06:58:03.466Z,75.61
2023-04-27T06:59:05.168Z,72.01
2023-04-27T07:00:07.398Z,71.22
2023-04-27T07:01:09.083Z,71.50
2023-04-27T07:02:10.687Z,72.49
2023-04-27T07:03:12.406Z,72.56
2023-04-27T07:04:14.184Z,71.60
2023-04-27T07:05:15.801Z,72.06
2023-04-27T07:06:17.347Z,73.12
2023-04-27T07:07:18.886Z,70.49
2023-04-27T07:08:20.479Z,68.40
2023-04-27T07:10:27.972Z,65.47
2023-04-27T07:11:29.881Z,64.72
2023-04-27T07:12:31.516Z,65.32
2023-04-27T07:13:33.050Z,66.73
2023-04-27T07:14:34.699Z,67.18
2023-04-27T07:15:36.302Z,68.82
2023-04-27T07:16:38.045Z,69.61
2023-04-27T07:17:39.713Z,69.02
2023-04-27T07:18:43.228Z,66.13
2023-04-27T07:19:45.196Z,67.21
2023-04-27T07:20:46.795Z,66.32
2023-04-27T07:21:48.356Z,66.74
2023-04-27T07:22:49.915Z,67.48
2023-04-27T07:23:52.191Z,67.93
2023-04-27T07:24:55.322Z,66.47
2023-04-27T07:25:57.714Z,64.61
2023-04-27T07:26:59.309Z,64.70
2023-04-27T07:28:00.885Z,64.77
2023-04-27T07:29:11.096Z,65.38
2023-04-27T07:30:16.373Z,65.68
2023-04-27T07:31:18.003Z,63.73
2023-04-27T07:32:19.653Z,63.10
2023-04-27T07:33:21.280Z,60.52
2023-04-27T07:34:23.077Z,60.54
2023-04-27T07:35:24.717Z,59.82
2023-04-27T07:36:26.354Z,57.55
2023-04-27T07:37:27.922Z,57.38
2023-04-27T07:38:29.605Z,58.73
2023-04-27T07:39:31.198Z,57.87
2023-04-27T07:40:32.882Z,57.39
2023-04-27T07:41:34.490Z,57.85
2023-04-27T07:42:37.581Z,58.92
2023-04-27T07:43:39.145Z,58.82
2023-04-27T07:44:40.898Z,59.32
2023-04-27T07:45:42.625Z,59.29
2023-04-27T07:46:44.392Z,59.45
2023-04-27T07:47:45.986Z,59.04
2023-04-27T07:48:47.633Z,58.46
2023-04-27T07:49:49.307Z,60.41
2023-04-27T07:50:51.261Z,61.50
2023-04-27T07:51:52.878Z,59.76
2023-04-27T07:52:54.458Z,57.93
2023-04-27T07:53:56.388Z,57.55
2023-04-27T07:54:57.990Z,56.75
2023-04-27T07:55:59.587Z,56.62
2023-04-27T07:57:01.185Z,56.26
2023-04-27T07:58:02.848Z,55.76
2023-04-27T07:59:04.480Z,54.57
2023-04-27T08:00:06.749Z,53.83
2023-04-27T08:01:14.273Z,55.85
2023-04-27T08:02:19.528Z,57.26
2023-04-27T08:03:22.107Z,56.79
2023-04-27T08:04:24.311Z,57.47
2023-04-27T08:05:26.551Z,56.09
2023-04-27T08:06:28.751Z,54.89
2023-04-27T08:07:31.136Z,54.70
2023-04-27T08:08:32.709Z,55.04
2023-04-27T08:09:34.249Z,55.11
2023-04-27T08:10:35.955Z,55.12
2023-04-27T08:11:37.508Z,54.91
2023-04-27T08:12:39.072Z,54.65
2023-04-27T08:13:40.664Z,55.39
2023-04-27T08:14:42.214Z,55.14
2023-04-27T08:15:43.745Z,55.57
2023-04-27T08:16:45.531Z,55.56
2023-04-27T08:17:47.208Z,55.64
2023-04-27T08:18:51.670Z,55.72
2023-04-27T08:19:53.276Z,55.70
2023-04-27T08:20:55.515Z,55.37
2023-04-27T08:21:57.204Z,54.78
2023-04-27T08:22:58.790Z,54.93
2023-04-27T08:24:00.333Z,55.89
2023-04-27T08:25:01.881Z,55.33
2023-04-27T08:26:03.543Z,54.79
2023-04-27T08:27:08.446Z,55.02
2023-04-27T08:28:10.020Z,55.46
2023-04-27T08:29:23.583Z,55.16
2023-04-27T08:30:28.344Z,54.57
2023-04-27T08:31:29.902Z,53.73
2023-04-27T08:32:31.585Z,52.81
2023-04-27T08:33:33.248Z,52.76
2023-04-27T08:34:35.125Z,52.01
2023-04-27T08:35:36.727Z,54.47
2023-04-27T08:36:38.280Z,54.63
2023-04-27T08:37:39.871Z,54.99
2023-04-27T08:38:41.419Z,55.18
2023-04-27T08:39:43.137Z,53.48
2023-04-27T08:40:45.145Z,52.61
2023-04-27T08:41:46.714Z,52.09
2023-04-27T08:42:59.017Z,52.59
2023-04-27T08:44:00.645Z,53.83
2023-04-27T08:45:02.272Z,54.93
2023-04-27T08:46:03.842Z,54.28
2023-04-27T08:47:05.410Z,53.65
2023-04-27T08:48:07.001Z,54.21
2023-04-27T08:49:08.580Z,54.65
2023-04-27T08:50:11.890Z,55.18
2023-04-27T08:51:15.211Z,54.13
2023-04-27T08:52:17.308Z,53.39
2023-04-27T08:53:22.829Z,53.49
2023-04-27T08:54:24.398Z,54.36
2023-04-27T08:55:25.949Z,54.63
2023-04-27T08:56:30.415Z,55.17
2023-04-27T08:57:32.044Z,54.55
2023-04-27T08:58:37.368Z,54.17
2023-04-27T08:59:42.468Z,54.26
2023-04-27T09:00:44.721Z,53.17
2023-04-27T09:01:47.669Z,51.86
2023-04-27T09:02:49.502Z,52.13
2023-04-27T09:03:58.640Z,52.27
2023-04-27T09:05:00.670Z,52.01
2023-04-27T09:06:06.443Z,51.55
2023-04-27T09:07:15.859Z,51.85
2023-04-27T09:08:17.448Z,52.09
2023-04-27T09:09:25.208Z,51.31
2023-04-27T09:10:26.938Z,51.52
2023-04-27T09:11:33.429Z,52.04
2023-04-27T09:12:35.001Z,52.69
2023-04-27T09:13:41.109Z,52.57
2023-04-27T09:14:43.267Z,53.11
2023-04-27T09:15:49.810Z,54.05
2023-04-27T09:16:58.476Z,53.89
2023-04-27T09:18:00.155Z,53.78
2023-04-27T09:19:01.808Z,53.71
2023-04-27T09:20:08.487Z,54.83
2023-04-27T09:21:10.428Z,55.39
2023-04-27T09:22:11.978Z,54.88
2023-04-27T09:23:33.082Z,55.07
2023-04-27T09:24:35.093Z,55.66
2023-04-27T09:25:36.654Z,55.55
2023-04-27T09:26:39.273Z,55.65
2023-04-27T09:27:44.099Z,53.59
2023-04-27T09:28:48.839Z,52.29
2023-04-27T09:29:50.444Z,52.11
2023-04-27T09:30:57.010Z,51.90
2023-04-27T09:31:58.712Z,52.07
2023-04-27T09:33:01.597Z,51.64
2023-04-27T09:34:03.550Z,51.52
2023-04-27T09:35:15.448Z,51.38
2023-04-27T09:36:17.042Z,53.10
2023-04-27T09:37:19.254Z,53.36
2023-04-27T09:38:22.140Z,52.33
2023-04-27T09:39:23.707Z,53.79
2023-04-27T09:40:27.662Z,52.44
2023-04-27T09:41:29.516Z,52.69
2023-04-27T09:42:31.799Z,51.08
2023-04-27T09:43:33.549Z,49.62
2023-04-27T09:44:35.252Z,49.47
2023-04-27T09:45:37.845Z,49.18
2023-04-27T09:46:40.628Z,49.36
2023-04-27T09:47:43.623Z,50.17
2023-04-27T09:48:45.193Z,50.27
2023-04-27T09:49:47.091Z,50.76
2023-04-27T09:50:50.217Z,51.46
2023-04-27T09:51:51.799Z,50.70
2023-04-27T09:52:53.336Z,50.57
2023-04-27T09:54:00.775Z,52.93
2023-04-27T09:55:04.840Z,53.02
2023-04-27T09:56:16.533Z,54.02
2023-04-27T09:57:28.149Z,55.74
2023-04-27T09:58:44.462Z,56.24
2023-04-27T10:00:01.712Z,57.77
2023-04-27T10:01:28.577Z,56.80
2023-04-27T10:02:52.536Z,55.40
2023-04-27T10:04:01.174Z,55.09
2023-04-27T10:05:20.054Z,55.61
2023-04-27T10:06:40.240Z,56.61
2023-04-27T10:07:42.276Z,56.28
2023-04-27T10:08:43.868Z,57.07
2023-04-27T10:09:47.453Z,56.04
2023-04-27T10:10:53.415Z,55.22
2023-04-27T10:11:55.348Z,55.78
2023-04-27T10:13:00.601Z,56.02
2023-04-27T10:14:06.800Z,54.51
2023-04-27T10:15:16.185Z,54.70
2023-04-27T10:16:20.427Z,54.57
2023-04-27T10:17:33.328Z,54.76
2023-04-27T10:18:34.952Z,54.85
2023-04-27T10:19:37.244Z,55.37
2023-04-27T10:20:38.948Z,56.48
2023-04-27T10:21:57.947Z,57.11
2023-04-27T10:22:59.934Z,55.36
2023-04-27T10:24:08.211Z,56.23
2023-04-27T10:25:39.247Z,55.92
2023-04-27T10:26:46.905Z,55.73
2023-04-27T10:27:50.329Z,55.25
2023-04-27T10:28:58.607Z,53.92
2023-04-27T10:30:09.877Z,52.14
2023-04-27T10:31:11.563Z,53.58
2023-04-27T10:32:18.711Z,53.76
2023-04-27T10:33:22.936Z,53.76
2023-04-27T10:34:27.774Z,53.29
2023-04-27T10:35:40.624Z,52.35
2023-04-27T10:36:42.244Z,52.16
2023-04-27T10:37:44.330Z,52.42
2023-04-27T10:38:45.869Z,52.77
2023-04-27T10:39:49.138Z,51.70
2023-04-27T10:41:00.487Z,52.00
2023-04-27T10:42:02.135Z,51.20
2023-04-27T10:43:17.712Z,50.17
2023-04-27T10:44:26.303Z,49.14
2023-04-27T10:45:31.213Z,48.21
2023-04-27T10:46:35.287Z,48.10
2023-04-27T10:47:45.909Z,48.54
2023-04-27T10:48:47.812Z,48.19
2023-04-27T10:49:53.259Z,49.55
2023-04-27T10:50:56.759Z,48.98
2023-04-27T10:51:59.358Z,47.01
2023-04-27T10:53:03.102Z,47.14
2023-04-27T10:54:05.154Z,47.25
2023-04-27T10:55:16.324Z,46.45
2023-04-27T10:56:18.890Z,47.21
2023-04-27T10:57:20.485Z,47.54
2023-04-27T10:58:29.860Z,47.43
2023-04-27T10:59:48.679Z,47.49
2023-04-27T11:00:50.261Z,48.15
2023-04-27T11:01:51.818Z,47.92
2023-04-27T11:02:54.824Z,48.13
2023-04-27T11:03:57.472Z,48.36
2023-04-27T11:04:59.051Z,47.07
2023-04-27T11:06:05.805Z,46.72
2023-04-27T11:07:09.614Z,46.89
2023-04-27T11:08:13.833Z,47.39
2023-04-27T11:09:26.337Z,47.02
2023-04-27T11:10:27.884Z,47.36
2023-04-27T11:11:29.506Z,46.61
2023-04-27T11:12:32.116Z,45.88
2023-04-27T11:13:33.851Z,46.11
2023-04-27T11:14:35.856Z,46.29
2023-04-27T11:15:53.244Z,45.07
2023-04-27T11:16:54.882Z,45.85
2023-04-27T11:18:05.151Z,45.59
2023-04-27T11:19:06.947Z,44.90
2023-04-27T11:20:09.282Z,45.35
2023-04-27T11:21:15.780Z,43.71
2023-04-27T11:22:17.359Z,43.85
2023-04-27T11:23:30.686Z,43.37
2023-04-27T11:24:33.424Z,43.61
2023-04-27T11:25:35.382Z,43.86
2023-04-27T11:26:37.181Z,43.50
2023-04-27T11:27:40.261Z,42.16
2023-04-27T11:28:56.749Z,41.58
2023-04-27T11:29:58.317Z,42.00
2023-04-27T11:31:00.212Z,42.63
2023-04-27T11:32:01.972Z,41.71
2023-04-27T11:33:08.490Z,42.54
2023-04-27T11:34:16.373Z,43.93
2023-04-27T11:35:18.233Z,43.76
2023-04-27T11:36:21.414Z,44.13
2023-04-27T11:37:27.346Z,43.89
2023-04-27T11:38:35.018Z,43.35
2023-04-27T11:39:38.565Z,42.18
2023-04-27T11:40:40.146Z,42.39
2023-04-27T11:41:41.698Z,42.71
2023-04-27T11:42:43.432Z,42.87
2023-04-27T11:43:45.030Z,43.07
2023-04-27T11:44:57.108Z,43.26
2023-04-27T11:46:02.051Z,43.27
2023-04-27T11:47:03.677Z,43.41
2023-04-27T11:48:05.552Z,44.02
2023-04-27T11:49:08.050Z,45.24
2023-04-27T11:50:10.502Z,45.00
2023-04-27T11:51:12.108Z,44.54
2023-04-27T11:52:14.464Z,43.97
2023-04-27T11:53:18.683Z,44.44
2023-04-27T11:54:28.773Z,44.20
2023-04-27T11:55:30.340Z,44.08
2023-04-27T11:56:39.764Z,43.76
2023-04-27T11:57:44.168Z,44.19
2023-04-27T11:58:46.466Z,44.24
2023-04-27T11:59:48.180Z,44.04
2023-04-27T12:00:49.729Z,44.86
2023-04-27T12:01:51.563Z,44.50
2023-04-27T12:02:53.360Z,44.44
2023-04-27T12:03:55.424Z,45.01
2023-04-27T12:04:59.290Z,45.41
2023-04-27T12:06:16.198Z,45.70
2023-04-27T12:07:22.865Z,45.81
2023-04-27T12:08:24.677Z,45.66
2023-04-27T12:09:26.209Z,45.49
2023-04-27T12:10:27.824Z,46.18
2023-04-27T12:11:29.409Z,46.39
2023-04-27T12:12:30.960Z,45.98
2023-04-27T12:13:32.508Z,45.88
2023-04-27T12:14:34.401Z,46.62
2023-04-27T12:15:35.980Z,46.70
2023-04-27T12:16:37.625Z,46.21
2023-04-27T12:17:39.828Z,45.10
2023-04-27T12:18:41.384Z,46.60
2023-04-27T12:19:42.956Z,45.94
2023-04-27T12:20:44.529Z,46.62
2023-04-27T12:21:46.187Z,46.56
2023-04-27T12:22:47.718Z,46.05
2023-04-27T12:23:49.271Z,46.05
2023-04-27T12:24:51.196Z,45.59
2023-04-27T12:25:52.841Z,45.37
2023-04-27T12:26:54.671Z,45.31
2023-04-27T12:27:56.269Z,46.09
2023-04-27T12:28:57.913Z,46.03
2023-04-27T12:29:59.505Z,46.75
2023-04-27T12:31:05.055Z,47.08
2023-04-27T12:32:06.659Z,46.67
2023-04-27T12:33:08.385Z,47.60
2023-04-27T12:34:10.061Z,50.05
2023-04-27T12:35:11.711Z,51.77
2023-04-27T12:36:13.324Z,53.04
2023-04-27T12:37:14.907Z,53.09
2023-04-27T12:38:16.461Z,52.96
2023-04-27T12:39:20.112Z,53.14
2023-04-27T12:40:21.659Z,53.57
2023-04-27T12:41:23.270Z,54.41
2023-04-27T12:42:25.004Z,56.25
2023-04-27T12:43:26.572Z,54.99
2023-04-27T12:44:28.144Z,55.26
2023-04-27T12:45:29.706Z,56.17
2023-04-27T12:46:31.268Z,56.81
2023-04-27T12:47:53.946Z,56.00
2023-04-27T12:48:54.385Z,55.05
2023-04-27T12:49:55.972Z,54.50
2023-04-27T12:50:57.573Z,54.39
2023-04-27T12:51:59.160Z,55.20
2023-04-27T12:53:00.776Z,55.32
2023-04-27T12:54:06.095Z,56.37
2023-04-27T12:55:13.060Z,56.12
2023-04-27T12:56:22.947Z,55.80
2023-04-27T12:57:24.568Z,53.99
2023-04-27T12:58:26.118Z,53.66
2023-04-27T12:59:27.672Z,53.63
2023-04-27T13:00:29.291Z,53.65
2023-04-27T13:01:31.028Z,52.77
2023-04-27T13:02:32.738Z,54.19
2023-04-27T13:03:34.523Z,54.70
2023-04-27T13:04:36.320Z,54.18
2023-04-27T13:05:38.078Z,52.81
2023-04-27T13:06:39.587Z,53.55
2023-04-27T13:07:41.120Z,52.98
2023-04-27T13:08:42.862Z,53.18
2023-04-27T13:09:44.640Z,54.04
2023-04-27T13:10:46.216Z,54.86
2023-04-27T13:11:47.808Z,53.69
2023-04-27T13:12:49.566Z,53.95
2023-04-27T13:13:51.244Z,53.23
2023-04-27T13:14:52.778Z,52.65
2023-04-27T13:15:54.453Z,52.99
2023-04-27T13:16:56.031Z,52.73
2023-04-27T13:17:57.646Z,52.48
2023-04-27T13:18:59.196Z,51.99
2023-04-27T13:20:00.827Z,52.88
2023-04-27T13:21:03.786Z,53.29
2023-04-27T13:22:05.403Z,52.74
2023-04-27T13:23:07.186Z,52.22
2023-04-27T13:24:08.804Z,51.86